createdAt,value
2018-10-03T00:00:20.618Z,97356.00
2018-10-03T00:02:49.787Z,97360.00
2018-10-03T00:05:18.939Z,97361.00
2018-10-03T00:07:48.115Z,97362.00
2018-10-03T00:10:17.262Z,97361.00
2018-10-03T00:12:46.450Z,97359.00
2018-10-03T00:15:15.604Z,97354.00
2018-10-03T00:17:44.770Z,97358.00
2018-10-03T00:20:13.971Z,97357.00
2018-10-03T00:22:43.141Z,97350.00
2018-10-03T00:25:12.355Z,97356.00
2018-10-03T00:27:41.543Z,97372.00
2018-10-03T00:30:10.699Z,97373.00
2018-10-03T00:32:39.855Z,97183.00
2018-10-03T00:35:08.999Z,97367.00
2018-10-03T00:37:38.167Z,97358.00
2018-10-03T00:40:07.310Z,97368.00
2018-10-03T00:42:36.494Z,97363.00
2018-10-03T00:45:06.257Z,97374.00
2018-10-03T00:47:35.446Z,97367.00
2018-10-03T00:50:04.838Z,97376.00
2018-10-03T00:52:34.017Z,97370.00
2018-10-03T00:55:03.185Z,97377.00
2018-10-03T00:57:32.403Z,97379.00
2018-10-03T01:00:01.563Z,97377.00
2018-10-03T01:02:30.742Z,97372.00
2018-10-03T01:04:59.898Z,97371.00
2018-10-03T01:07:29.101Z,97372.00
2018-10-03T01:09:58.267Z,97367.00
2018-10-03T01:12:27.415Z,97370.00
2018-10-03T01:14:56.583Z,97370.00
2018-10-03T01:17:25.798Z,97357.00
2018-10-03T01:19:54.970Z,97366.00
2018-10-03T01:22:24.135Z,97355.00
2018-10-03T01:24:53.302Z,97356.00
2018-10-03T01:27:22.472Z,97353.00
2018-10-03T01:29:51.659Z,97359.00
2018-10-03T01:32:20.813Z,97364.00
2018-10-03T01:34:49.982Z,97360.00
2018-10-03T01:37:19.135Z,97359.00
2018-10-03T01:39:48.311Z,97366.00
2018-10-03T01:42:17.504Z,97377.00
2018-10-03T01:44:46.681Z,97368.00
2018-10-03T01:47:15.838Z,97377.00
2018-10-03T01:49:45.023Z,97378.00
2018-10-03T01:52:14.180Z,97389.00
2018-10-03T01:54:43.359Z,97367.00
2018-10-03T01:57:12.517Z,97374.00
2018-10-03T01:59:41.695Z,97373.00
2018-10-03T02:02:10.855Z,97375.00
2018-10-03T02:04:40.027Z,97376.00
2018-10-03T02:07:09.187Z,97379.00
2018-10-03T02:09:38.351Z,97384.00
2018-10-03T02:12:07.528Z,97377.00
2018-10-03T02:14:36.769Z,97384.00
2018-10-03T02:17:06.176Z,97388.00
2018-10-03T02:19:35.356Z,97386.00
2018-10-03T02:22:04.605Z,97384.00
2018-10-03T02:24:33.779Z,97375.00
2018-10-03T02:27:02.939Z,97376.00
2018-10-03T02:29:39.019Z,97380.00
2018-10-03T02:32:08.167Z,97377.00
2018-10-03T02:34:37.343Z,97378.00
2018-10-03T02:37:06.524Z,97381.00
2018-10-03T02:39:35.697Z,97381.00
2018-10-03T02:42:04.874Z,97386.00
2018-10-03T02:44:34.065Z,97377.00
2018-10-03T02:47:03.219Z,97393.00
2018-10-03T02:49:32.446Z,97384.00
2018-10-03T02:52:01.619Z,97388.00
2018-10-03T02:54:31.339Z,97393.00
2018-10-03T02:57:00.510Z,97380.00
2018-10-03T02:59:29.706Z,97385.00
2018-10-03T03:01:58.908Z,97400.00
2018-10-03T03:04:28.084Z,97392.00
2018-10-03T03:06:57.835Z,97389.00
2018-10-03T03:09:27.048Z,97404.00
2018-10-03T03:11:56.210Z,97403.00
2018-10-03T03:14:25.412Z,97409.00
2018-10-03T03:16:54.570Z,97405.00
2018-10-03T03:19:23.746Z,97403.00
2018-10-03T03:21:52.913Z,97404.00
2018-10-03T03:24:22.129Z,97399.00
2018-10-03T03:26:51.324Z,97408.00
2018-10-03T03:29:20.582Z,97402.00
2018-10-03T03:31:49.743Z,97405.00
2018-10-03T03:34:18.946Z,97392.00
2018-10-03T03:36:48.107Z,97401.00
2018-10-03T03:39:17.282Z,97407.00
2018-10-03T03:41:46.462Z,97405.00
2018-10-03T03:44:15.662Z,97406.00
2018-10-03T03:46:44.827Z,97402.00
2018-10-03T03:49:14.054Z,97404.00
2018-10-03T03:51:43.214Z,97414.00
2018-10-03T03:54:12.391Z,97416.00
2018-10-03T03:56:41.542Z,97401.00
2018-10-03T03:59:10.723Z,97410.00
2018-10-03T04:01:39.883Z,97426.00
2018-10-03T04:04:09.084Z,97424.00
2018-10-03T04:06:38.238Z,97426.00
2018-10-03T04:09:07.936Z,97417.00
2018-10-03T04:11:37.066Z,97411.00
2018-10-03T04:14:06.338Z,97411.00
2018-10-03T04:16:35.494Z,97427.00
2018-10-03T04:19:04.661Z,97412.00
2018-10-03T04:21:38.535Z,97430.00
2018-10-03T04:24:08.978Z,97429.00
2018-10-03T04:26:38.670Z,97437.00
2018-10-03T04:29:07.947Z,97450.00
2018-10-03T04:31:37.569Z,97438.00
2018-10-03T04:34:07.108Z,97450.00
2018-10-03T04:36:36.481Z,97448.00
2018-10-03T04:39:07.751Z,97457.00
2018-10-03T04:41:37.454Z,97456.00
2018-10-03T04:44:13.262Z,97475.00
2018-10-03T04:46:42.423Z,97476.00
2018-10-03T04:49:11.708Z,97479.00
2018-10-03T04:51:47.431Z,97474.00
2018-10-03T04:54:16.647Z,97486.00
2018-10-03T04:56:45.808Z,97485.00
2018-10-03T04:59:14.978Z,97478.00
2018-10-03T05:01:44.153Z,97475.00
2018-10-03T05:04:13.313Z,97475.00
2018-10-03T05:06:42.490Z,97478.00
2018-10-03T05:09:11.647Z,97481.00
2018-10-03T05:11:40.837Z,97489.00
2018-10-03T05:14:10.006Z,97497.00
2018-10-03T05:16:39.175Z,97486.00
2018-10-03T05:19:08.335Z,97492.00
2018-10-03T05:21:37.705Z,97497.00
2018-10-03T05:24:06.922Z,97515.00
2018-10-03T05:26:36.097Z,97512.00
2018-10-03T05:29:05.282Z,97521.00
2018-10-03T05:31:34.682Z,97515.00
2018-10-03T05:34:03.847Z,97514.00
2018-10-03T05:36:33.020Z,97523.00
2018-10-03T05:39:02.179Z,97526.00
2018-10-03T05:41:31.389Z,97531.00
2018-10-03T05:44:00.575Z,97376.00
2018-10-03T05:46:29.768Z,97533.00
2018-10-03T05:48:58.969Z,97530.00
2018-10-03T05:51:28.173Z,97538.00
2018-10-03T05:53:57.380Z,97539.00
2018-10-03T05:56:26.554Z,97541.00
2018-10-03T05:58:55.723Z,97539.00
2018-10-03T06:01:24.919Z,97538.00
2018-10-03T06:03:54.083Z,97549.00
2018-10-03T06:06:23.287Z,97555.00
2018-10-03T06:08:52.443Z,97553.00
2018-10-03T06:11:21.633Z,97560.00
2018-10-03T06:13:50.797Z,97569.00
2018-10-03T06:16:19.986Z,97562.00
2018-10-03T06:18:49.161Z,97565.00
2018-10-03T06:21:18.352Z,97569.00
2018-10-03T06:23:47.518Z,97574.00
2018-10-03T06:26:16.685Z,97577.00
2018-10-03T06:28:46.428Z,97596.00
2018-10-03T06:31:15.631Z,97591.00
2018-10-03T06:33:44.797Z,97602.00
2018-10-03T06:36:13.992Z,97605.00
2018-10-03T06:38:43.179Z,97596.00
2018-10-03T06:41:12.360Z,97614.00
2018-10-03T06:43:41.567Z,97600.00
2018-10-03T06:46:11.210Z,97609.00
2018-10-03T06:48:40.363Z,97605.00
2018-10-03T06:51:09.562Z,97614.00
2018-10-03T06:53:38.723Z,97611.00
2018-10-03T06:56:07.938Z,97614.00
2018-10-03T06:58:37.109Z,97608.00
2018-10-03T07:01:06.319Z,97604.00
2018-10-03T07:08:31.287Z,97629.00
2018-10-03T07:11:00.471Z,97630.00
2018-10-03T07:13:29.626Z,97621.00
2018-10-03T07:15:58.863Z,97633.00
2018-10-03T07:18:28.100Z,97632.00
2018-10-03T07:20:57.314Z,97631.00
2018-10-03T07:23:26.479Z,97635.00
2018-10-03T07:25:55.677Z,97615.00
2018-10-03T07:28:24.870Z,97619.00
2018-10-03T07:30:54.087Z,97617.00
2018-10-03T07:33:23.386Z,97623.00
2018-10-03T07:35:52.717Z,97631.00
2018-10-03T07:38:21.923Z,97637.00
2018-10-03T07:40:51.168Z,97620.00
2018-10-03T07:43:20.376Z,97635.00
2018-10-03T07:45:49.572Z,97629.00
2018-10-03T07:48:18.759Z,97637.00
2018-10-03T07:50:48.352Z,97635.00
2018-10-03T07:53:17.555Z,97488.00
2018-10-03T07:55:46.776Z,97631.00
2018-10-03T07:58:15.952Z,97635.00
2018-10-03T08:00:45.164Z,97651.00
2018-10-03T08:03:15.232Z,97651.00
2018-10-03T08:05:44.822Z,97655.00
2018-10-03T08:08:14.019Z,97662.00
2018-10-03T08:10:43.202Z,97674.00
2018-10-03T08:13:12.475Z,97674.00
2018-10-03T08:15:41.682Z,97689.00
2018-10-03T08:18:10.880Z,97692.00
2018-10-03T08:20:40.069Z,97700.00
2018-10-03T08:23:09.351Z,97695.00
2018-10-03T08:25:38.527Z,97640.00
2018-10-03T08:28:07.975Z,97688.00
2018-10-03T08:30:37.155Z,97706.00
2018-10-03T08:33:06.569Z,97708.00
2018-10-03T08:35:35.966Z,97689.00
2018-10-03T08:38:05.144Z,97704.00
2018-10-03T08:40:34.310Z,97706.00
2018-10-03T08:43:03.515Z,97716.00
2018-10-03T08:45:32.719Z,97694.00
2018-10-03T08:48:01.893Z,97706.00
2018-10-03T08:50:31.063Z,97697.00
2018-10-03T08:53:00.287Z,97713.00
2018-10-03T08:55:29.507Z,97705.00
2018-10-03T08:57:58.743Z,97719.00
2018-10-03T09:00:27.938Z,97723.00
2018-10-03T09:02:57.798Z,97731.00
2018-10-03T09:05:27.067Z,97746.00
2018-10-03T09:08:08.387Z,97726.00
2018-10-03T09:10:37.739Z,97715.00
2018-10-03T09:13:06.927Z,97717.00
2018-10-03T09:15:36.078Z,97722.00
2018-10-03T09:18:05.262Z,97715.00
2018-10-03T09:20:34.426Z,97735.00
2018-10-03T09:23:03.628Z,97723.00
2018-10-03T09:25:32.943Z,97715.00
2018-10-03T09:28:02.378Z,97728.00
2018-10-03T09:30:31.592Z,97724.00
2018-10-03T09:33:01.079Z,97739.00
2018-10-03T09:35:30.278Z,97751.00
2018-10-03T09:37:59.468Z,97748.00
2018-10-03T09:40:28.663Z,97744.00
2018-10-03T09:42:58.407Z,97743.00
2018-10-03T09:45:27.622Z,97760.00
2018-10-03T09:47:56.823Z,97752.00
2018-10-03T09:50:25.995Z,97747.00
2018-10-03T09:52:55.235Z,97762.00
2018-10-03T09:55:24.406Z,97766.00
2018-10-03T09:57:53.606Z,97772.00
2018-10-03T10:00:28.246Z,97777.00
2018-10-03T10:02:57.403Z,97778.00
2018-10-03T10:05:26.619Z,97788.00
2018-10-03T10:07:55.886Z,97803.00
2018-10-03T10:10:25.063Z,97796.00
2018-10-03T10:12:54.260Z,97793.00
2018-10-03T10:15:23.456Z,97795.00
2018-10-03T10:17:52.643Z,97797.00
2018-10-03T10:20:21.832Z,97812.00
2018-10-03T10:22:51.030Z,97814.00
2018-10-03T10:25:20.239Z,97804.00
2018-10-03T10:27:49.447Z,97819.00
2018-10-03T10:30:18.619Z,97826.00
2018-10-03T10:32:47.930Z,97803.00
2018-10-03T10:35:17.087Z,97826.00
2018-10-03T10:37:46.331Z,97828.00
2018-10-03T10:40:15.550Z,97817.00
2018-10-03T10:42:44.868Z,97812.00
2018-10-03T10:45:14.035Z,97830.00
2018-10-03T10:47:43.220Z,97807.00
2018-10-03T10:50:12.503Z,97811.00
2018-10-03T10:52:41.620Z,97842.00
2018-10-03T10:55:10.800Z,97821.00
2018-10-03T10:57:40.152Z,97836.00
2018-10-03T11:00:09.519Z,97841.00
2018-10-03T11:02:38.718Z,97844.00
2018-10-03T11:05:07.881Z,97844.00
2018-10-03T11:07:37.063Z,97845.00
2018-10-03T11:10:06.395Z,97834.00
2018-10-03T11:12:35.607Z,97847.00
2018-10-03T11:15:04.789Z,97841.00
2018-10-03T11:17:33.991Z,97849.00
2018-10-03T11:20:03.178Z,97847.00
2018-10-03T11:22:32.459Z,97839.00
2018-10-03T11:25:01.677Z,97840.00
2018-10-03T11:27:30.895Z,97852.00
2018-10-03T11:30:00.082Z,97832.00
2018-10-03T11:32:30.015Z,97830.00
2018-10-03T11:34:59.290Z,97839.00
2018-10-03T11:37:28.713Z,97836.00
2018-10-03T11:39:58.528Z,97842.00
2018-10-03T11:42:28.735Z,97842.00
2018-10-03T11:44:57.936Z,97859.00
2018-10-03T11:47:27.118Z,97852.00
2018-10-03T11:49:56.290Z,97854.00
2018-10-03T11:52:25.455Z,97858.00
2018-10-03T11:54:54.691Z,97857.00
2018-10-03T11:57:24.011Z,97844.00
2018-10-03T11:59:53.212Z,97839.00
2018-10-03T12:02:22.375Z,97833.00
2018-10-03T12:04:51.665Z,97845.00
2018-10-03T12:07:20.862Z,97854.00
2018-10-03T12:09:50.076Z,97844.00
2018-10-03T12:12:19.436Z,97847.00
2018-10-03T12:14:48.627Z,97860.00
2018-10-03T12:17:17.803Z,97865.00
2018-10-03T12:19:46.995Z,97859.00
2018-10-03T12:22:16.161Z,97857.00
2018-10-03T12:24:45.363Z,97860.00
2018-10-03T12:27:14.531Z,97856.00
2018-10-03T12:29:43.724Z,97857.00
2018-10-03T12:32:12.933Z,97865.00
2018-10-03T12:34:42.151Z,97862.00
2018-10-03T12:37:11.315Z,97862.00
2018-10-03T12:39:40.500Z,97868.00
2018-10-03T12:42:09.700Z,97858.00
2018-10-03T12:44:38.876Z,97863.00
2018-10-03T12:47:08.091Z,97868.00
2018-10-03T12:49:37.269Z,97874.00
2018-10-03T12:52:07.171Z,97879.00
2018-10-03T12:54:36.393Z,97877.00
2018-10-03T12:57:05.579Z,97883.00
2018-10-03T12:59:34.775Z,97896.00
2018-10-03T13:02:03.955Z,97898.00
2018-10-03T13:04:33.136Z,97894.00
2018-10-03T13:07:02.299Z,97870.00
2018-10-03T13:09:31.481Z,97898.00
2018-10-03T13:12:00.635Z,97884.00
2018-10-03T13:14:29.840Z,97898.00
2018-10-03T13:16:59.017Z,97901.00
2018-10-03T13:19:28.175Z,97902.00
2018-10-03T13:21:57.476Z,97888.00
2018-10-03T13:24:26.685Z,97894.00
2018-10-03T13:26:55.866Z,97896.00
2018-10-03T13:29:25.088Z,97910.00
2018-10-03T13:31:54.251Z,97907.00
2018-10-03T13:34:23.431Z,97916.00
2018-10-03T13:36:52.590Z,97925.00
2018-10-03T13:39:21.779Z,97921.00
2018-10-03T13:41:50.953Z,97918.00
2018-10-03T13:44:20.218Z,97922.00
2018-10-03T13:46:49.409Z,97925.00
2018-10-03T13:49:18.583Z,97918.00
2018-10-03T13:51:47.746Z,97933.00
2018-10-03T13:54:16.930Z,97918.00
2018-10-03T13:56:46.095Z,97920.00
2018-10-03T13:59:15.291Z,97921.00
2018-10-03T14:01:44.519Z,97938.00
2018-10-03T14:04:13.684Z,97926.00
2018-10-03T14:06:42.855Z,97924.00
2018-10-03T14:09:12.408Z,97936.00
2018-10-03T14:11:41.591Z,97939.00
2018-10-03T14:14:10.794Z,97945.00
2018-10-03T14:16:39.954Z,97950.00
2018-10-03T14:19:09.163Z,97950.00
2018-10-03T14:21:38.325Z,97951.00
2018-10-03T14:24:07.535Z,97948.00
2018-10-03T14:26:36.755Z,97958.00
2018-10-03T14:29:05.982Z,97947.00
2018-10-03T14:31:35.165Z,97954.00
2018-10-03T14:34:04.342Z,97955.00
2018-10-03T14:36:33.506Z,97950.00
2018-10-03T14:39:02.703Z,97956.00
2018-10-03T14:41:31.851Z,97958.00
2018-10-03T14:44:01.072Z,97948.00
2018-10-03T14:46:30.245Z,97965.00
2018-10-03T14:48:59.419Z,97954.00
2018-10-03T14:51:31.751Z,97962.00
2018-10-03T14:54:00.951Z,97952.00
2018-10-03T14:56:30.122Z,97967.00
2018-10-03T14:58:59.349Z,97965.00
2018-10-03T15:01:28.545Z,97967.00
2018-10-03T15:03:57.772Z,97972.00
2018-10-03T15:06:27.031Z,97970.00
2018-10-03T15:08:56.194Z,97972.00
2018-10-03T15:11:25.453Z,97971.00
2018-10-03T15:13:54.647Z,97977.00
2018-10-03T15:16:23.840Z,97976.00
2018-10-03T15:18:53.087Z,97979.00
2018-10-03T15:21:22.276Z,97983.00
2018-10-03T15:23:51.442Z,97987.00
2018-10-03T15:26:20.626Z,97981.00
2018-10-03T15:28:49.799Z,97986.00
2018-10-03T15:31:18.997Z,98000.00
2018-10-03T15:33:48.162Z,98002.00
2018-10-03T15:36:17.355Z,98006.00
2018-10-03T15:38:46.571Z,98007.00
2018-10-03T15:41:15.750Z,98018.00
2018-10-03T15:43:44.938Z,98010.00
2018-10-03T15:46:14.131Z,98018.00
2018-10-03T15:48:43.319Z,98026.00
2018-10-03T15:51:12.499Z,98023.00
2018-10-03T15:53:41.655Z,98029.00
2018-10-03T15:56:10.880Z,98032.00
2018-10-03T15:58:40.068Z,98035.00
2018-10-03T16:01:09.380Z,98039.00
2018-10-03T16:03:38.592Z,98042.00
2018-10-03T16:06:07.795Z,98045.00
2018-10-03T16:08:36.971Z,98047.00
2018-10-03T16:11:22.238Z,98055.00
2018-10-03T16:13:51.407Z,98058.00
2018-10-03T16:16:20.595Z,98055.00
2018-10-03T16:18:49.757Z,98061.00
2018-10-03T16:21:18.967Z,98032.00
2018-10-03T16:23:48.141Z,98053.00
2018-10-03T16:26:17.424Z,98062.00
2018-10-03T16:28:46.532Z,98054.00
2018-10-03T16:31:15.784Z,98057.00
2018-10-03T16:33:44.971Z,98059.00
2018-10-03T16:36:14.235Z,98064.00
2018-10-03T16:38:43.497Z,98067.00
2018-10-03T16:41:12.675Z,98046.00
2018-10-03T16:43:41.856Z,98075.00
2018-10-03T16:46:11.185Z,98085.00
2018-10-03T16:48:40.467Z,98086.00
2018-10-03T16:51:09.696Z,98090.00
2018-10-03T16:53:38.868Z,98084.00
2018-10-03T16:56:08.079Z,98091.00
2018-10-03T16:58:37.268Z,98087.00
2018-10-03T17:01:06.487Z,98090.00
2018-10-03T17:03:35.663Z,98091.00
2018-10-03T17:06:04.858Z,98100.00
2018-10-03T17:08:34.823Z,98101.00
2018-10-03T17:11:04.031Z,98109.00
2018-10-03T17:13:33.195Z,98106.00
2018-10-03T17:16:02.392Z,98112.00
2018-10-03T17:18:31.567Z,98116.00
2018-10-03T17:21:00.885Z,98119.00
2018-10-03T17:23:30.128Z,98119.00
2018-10-03T17:25:59.325Z,98134.00
2018-10-03T17:28:28.594Z,98147.00
2018-10-03T17:30:57.775Z,98137.00
2018-10-03T17:33:26.954Z,98138.00
2018-10-03T17:35:56.130Z,98152.00
2018-10-03T17:38:25.394Z,98150.00
2018-10-03T17:40:54.589Z,98154.00
2018-10-03T17:43:23.927Z,98146.00
2018-10-03T17:45:53.115Z,98156.00
2018-10-03T17:48:22.279Z,98152.00
2018-10-03T17:50:51.478Z,98164.00
2018-10-03T17:53:20.643Z,98162.00
2018-10-03T17:55:49.836Z,98155.00
2018-10-03T17:58:19.060Z,98159.00
2018-10-03T18:00:48.274Z,98155.00
2018-10-03T18:03:17.447Z,98160.00
2018-10-03T18:05:46.638Z,98173.00
2018-10-03T18:08:15.805Z,98170.00
2018-10-03T18:10:45.026Z,98160.00
2018-10-03T18:13:14.271Z,98171.00
2018-10-03T18:15:43.476Z,98167.00
2018-10-03T18:18:13.781Z,98169.00
2018-10-03T18:20:43.018Z,98156.00
2018-10-03T18:23:12.216Z,98173.00
2018-10-03T18:25:41.470Z,98164.00
2018-10-03T18:28:10.727Z,98166.00
2018-10-03T18:30:40.028Z,98167.00
2018-10-03T18:33:09.527Z,98169.00
2018-10-03T18:35:38.792Z,98178.00
2018-10-03T18:38:08.060Z,98181.00
2018-10-03T18:40:37.278Z,98182.00
2018-10-03T18:43:06.612Z,98170.00
2018-10-03T18:45:35.795Z,98179.00
2018-10-03T18:48:05.007Z,98186.00
2018-10-03T18:50:34.274Z,98186.00
2018-10-03T18:53:03.506Z,98178.00
2018-10-03T18:55:32.766Z,98181.00
2018-10-03T18:58:01.997Z,98192.00
2018-10-03T19:00:31.187Z,98193.00
2018-10-03T19:03:00.428Z,98192.00
2018-10-03T19:05:29.603Z,98202.00
2018-10-03T19:07:58.788Z,98183.00
2018-10-03T19:10:27.949Z,98195.00
2018-10-03T19:12:57.170Z,98197.00
2018-10-03T19:15:26.479Z,98197.00
2018-10-03T19:17:55.699Z,98211.00
2018-10-03T19:20:24.879Z,98213.00
2018-10-03T19:22:54.069Z,98219.00
2018-10-03T19:25:23.233Z,98220.00
2018-10-03T19:27:52.412Z,98224.00
2018-10-03T19:30:21.575Z,98219.00
2018-10-03T19:32:50.775Z,98222.00
2018-10-03T19:35:19.943Z,98219.00
2018-10-03T19:37:49.138Z,98214.00
2018-10-03T19:40:18.303Z,98213.00
2018-10-03T19:42:47.503Z,98224.00
2018-10-03T19:45:16.855Z,98222.00
2018-10-03T19:47:46.088Z,98234.00
2018-10-03T19:50:15.248Z,98218.00
2018-10-03T19:52:44.433Z,98227.00
2018-10-03T19:55:13.590Z,98230.00
2018-10-03T19:57:42.843Z,98238.00
2018-10-03T20:00:11.998Z,98219.00
2018-10-03T20:02:41.178Z,98230.00
2018-10-03T20:05:10.367Z,98236.00
2018-10-03T20:07:39.556Z,98225.00
2018-10-03T20:10:08.715Z,98240.00
2018-10-03T20:12:37.917Z,98235.00
2018-10-03T20:15:07.177Z,98248.00
2018-10-03T20:17:36.364Z,98249.00
2018-10-03T20:20:05.723Z,98242.00
2018-10-03T20:22:34.928Z,98234.00
2018-10-03T20:25:04.163Z,98241.00
2018-10-03T20:27:33.636Z,98239.00
2018-10-03T20:30:02.818Z,98247.00
2018-10-03T20:32:32.043Z,98247.00
2018-10-03T20:35:01.209Z,98239.00
2018-10-03T20:37:30.442Z,98242.00
2018-10-03T20:39:59.637Z,98250.00
2018-10-03T20:42:28.845Z,98241.00
2018-10-03T20:44:58.023Z,98258.00
2018-10-03T20:47:27.219Z,98264.00
2018-10-03T20:49:56.403Z,98252.00
2018-10-03T20:52:25.639Z,98241.00
2018-10-03T20:54:54.810Z,98252.00
2018-10-03T20:57:24.009Z,98242.00
2018-10-03T20:59:53.208Z,98250.00
2018-10-03T21:02:22.421Z,98239.00
2018-10-03T21:04:51.618Z,98235.00
2018-10-03T21:07:20.853Z,98242.00
2018-10-03T21:09:50.035Z,98251.00
2018-10-03T21:12:19.387Z,98237.00
2018-10-03T21:14:48.562Z,98249.00
2018-10-03T21:17:18.593Z,98240.00
2018-10-03T21:19:47.803Z,98257.00
2018-10-03T21:22:17.002Z,98260.00
2018-10-03T21:24:46.241Z,98258.00
2018-10-03T21:27:15.464Z,98262.00
2018-10-03T21:29:44.873Z,98261.00
2018-10-03T21:32:14.096Z,98260.00
2018-10-03T21:34:43.268Z,98270.00
2018-10-03T21:37:12.471Z,98252.00
2018-10-03T21:39:41.634Z,98249.00
2018-10-03T21:42:10.855Z,98254.00
2018-10-03T21:44:40.023Z,98257.00
2018-10-03T21:47:09.206Z,98257.00
2018-10-03T21:49:38.441Z,98255.00
2018-10-03T21:52:07.630Z,98257.00
2018-10-03T21:54:36.829Z,98263.00
2018-10-03T21:57:06.243Z,98254.00
2018-10-03T21:59:35.532Z,98263.00
2018-10-03T22:02:04.840Z,98262.00
2018-10-03T22:04:34.043Z,98265.00
2018-10-03T22:07:03.307Z,98255.00
2018-10-03T22:09:32.494Z,98267.00
2018-10-03T22:12:01.670Z,98264.00
2018-10-03T22:14:30.887Z,98264.00
2018-10-03T22:17:00.058Z,98262.00
2018-10-03T22:19:29.247Z,98267.00
2018-10-03T22:21:58.431Z,98255.00
2018-10-03T22:24:27.627Z,98264.00
2018-10-03T22:26:56.814Z,98266.00
2018-10-03T22:29:26.031Z,98259.00
2018-10-03T22:31:55.190Z,98261.00
2018-10-03T22:34:24.401Z,98257.00
2018-10-03T22:36:53.574Z,98256.00
2018-10-03T22:39:22.783Z,98253.00
2018-10-03T22:41:51.959Z,98262.00
2018-10-03T22:44:21.190Z,98245.00
2018-10-03T22:46:50.356Z,98262.00
2018-10-03T22:49:19.535Z,98244.00
2018-10-03T22:51:48.703Z,98261.00
2018-10-03T22:54:17.890Z,98253.00
2018-10-03T22:56:47.174Z,98250.00
2018-10-03T22:59:16.376Z,98243.00
2018-10-03T23:01:45.530Z,98258.00
2018-10-03T23:04:14.739Z,98253.00
2018-10-03T23:06:43.907Z,98218.00
2018-10-03T23:09:13.089Z,98257.00
2018-10-03T23:11:42.265Z,98251.00
2018-10-03T23:14:11.468Z,98257.00
2018-10-03T23:16:40.630Z,98260.00
2018-10-03T23:19:09.814Z,98264.00
2018-10-03T23:21:38.988Z,98261.00
2018-10-03T23:24:08.170Z,98265.00
2018-10-03T23:26:37.449Z,98259.00
2018-10-03T23:29:06.742Z,98258.00
2018-10-03T23:31:35.919Z,98265.00
2018-10-03T23:34:05.104Z,98264.00
2018-10-03T23:36:34.287Z,98264.00
2018-10-03T23:39:04.592Z,98270.00
2018-10-03T23:41:33.771Z,98262.00
2018-10-03T23:44:02.971Z,98266.00
2018-10-03T23:46:32.137Z,98272.00
2018-10-03T23:49:01.315Z,98268.00
2018-10-03T23:51:30.491Z,98269.00
2018-10-03T23:53:59.670Z,98278.00
2018-10-03T23:56:28.871Z,98266.00
2018-10-03T23:58:58.050Z,98270.00
